createdAt,value
2023-05-02T00:02:24.027Z,93.20
2023-05-02T00:04:51.138Z,93.40
2023-05-02T00:07:17.861Z,93.60
2023-05-02T00:09:44.628Z,93.90
2023-05-02T00:12:11.453Z,93.90
2023-05-02T00:14:40.795Z,94.00
2023-05-02T00:17:07.757Z,94.60
2023-05-02T00:19:39.611Z,94.50
2023-05-02T00:22:06.394Z,94.60
2023-05-02T00:24:33.239Z,94.70
2023-05-02T00:27:02.272Z,94.90
2023-05-02T00:29:29.093Z,95.10
2023-05-02T00:31:58.133Z,95.10
2023-05-02T00:34:30.338Z,95.20
2023-05-02T00:36:57.298Z,95.30
2023-05-02T00:39:24.342Z,95.40
2023-05-02T00:41:59.910Z,95.50
2023-05-02T00:44:26.692Z,95.70
2023-05-02T00:46:55.905Z,95.70
2023-05-02T00:49:22.772Z,95.90
2023-05-02T00:51:49.541Z,95.90
2023-05-02T00:54:16.345Z,95.70
2023-05-02T00:56:43.123Z,95.90
2023-05-02T00:59:10.168Z,96.10
2023-05-02T01:02:05.270Z,96.20
2023-05-02T01:04:36.882Z,96.30
2023-05-02T01:07:45.126Z,96.20
2023-05-02T01:10:47.541Z,96.50
2023-05-02T01:13:24.453Z,96.50
2023-05-02T01:15:54.470Z,96.60
2023-05-02T01:18:22.851Z,96.80
2023-05-02T01:20:52.395Z,97.00
2023-05-02T01:24:03.480Z,97.20
2023-05-02T01:26:35.293Z,97.60
2023-05-02T01:29:03.509Z,97.70
2023-05-02T01:31:33.336Z,97.70
2023-05-02T01:34:00.679Z,97.90
2023-05-02T01:36:30.366Z,98.10
2023-05-02T01:38:57.331Z,98.20
2023-05-02T01:41:28.102Z,98.30
2023-05-02T01:43:58.940Z,98.50
2023-05-02T01:46:29.476Z,98.80
2023-05-02T01:48:56.309Z,99.10
2023-05-02T01:51:25.177Z,99.30
2023-05-02T01:53:51.956Z,99.70
2023-05-02T01:56:18.730Z,99.90
2023-05-02T01:58:46.446Z,99.90
2023-05-02T02:01:17.938Z,99.90
2023-05-02T02:03:44.791Z,99.90
2023-05-02T02:06:14.208Z,99.90
2023-05-02T02:08:41.060Z,99.90
2023-05-02T02:11:10.771Z,99.90
2023-05-02T02:13:49.918Z,99.90
2023-05-02T02:16:21.650Z,99.90
2023-05-02T02:18:48.496Z,99.90
2023-05-02T02:21:17.129Z,99.90
2023-05-02T02:23:44.023Z,99.90
2023-05-02T02:26:13.452Z,99.90
2023-05-02T02:28:40.242Z,99.90
2023-05-02T02:31:07.087Z,99.90
2023-05-02T02:33:33.881Z,99.90
2023-05-02T02:36:13.141Z,99.90
2023-05-02T02:38:51.321Z,99.90
2023-05-02T02:41:28.288Z,99.90
2023-05-02T02:44:12.215Z,99.90
2023-05-02T02:46:44.133Z,99.90
2023-05-02T02:49:42.969Z,99.90
2023-05-02T02:52:27.028Z,99.90
2023-05-02T02:54:58.690Z,99.90
2023-05-02T02:57:28.280Z,99.90
2023-05-02T03:00:19.266Z,99.90
2023-05-02T03:02:47.110Z,99.90
2023-05-02T03:05:16.602Z,99.90
2023-05-02T03:07:47.988Z,99.90
2023-05-02T03:10:14.787Z,99.90
2023-05-02T03:12:41.605Z,99.90
2023-05-02T03:15:47.891Z,99.90
2023-05-02T03:18:14.861Z,99.90
2023-05-02T03:20:43.836Z,99.90
2023-05-02T03:23:12.851Z,99.90
2023-05-02T03:25:39.569Z,99.90
2023-05-02T03:28:06.316Z,99.90
2023-05-02T03:30:33.240Z,99.90
2023-05-02T03:33:00.673Z,99.90
2023-05-02T03:35:27.539Z,99.90
2023-05-02T03:37:56.454Z,99.90
2023-05-02T03:40:23.341Z,99.90
2023-05-02T03:42:52.562Z,99.90
2023-05-02T03:45:21.734Z,99.90
2023-05-02T03:47:48.561Z,99.90
2023-05-02T03:50:15.426Z,99.90
2023-05-02T03:52:42.152Z,99.90
2023-05-02T03:55:09.079Z,99.90
2023-05-02T03:57:38.531Z,99.90
2023-05-02T04:00:08.141Z,99.90
2023-05-02T04:02:35.107Z,99.90
2023-05-02T04:05:04.158Z,99.90
2023-05-02T04:07:33.307Z,99.90
2023-05-02T04:10:02.623Z,99.90
2023-05-02T04:12:29.663Z,99.90
2023-05-02T04:14:56.464Z,99.90
2023-05-02T04:17:23.292Z,99.90
2023-05-02T04:19:51.875Z,99.90
2023-05-02T04:22:18.637Z,99.90
2023-05-02T04:24:47.672Z,99.90
2023-05-02T04:27:15.396Z,99.90
2023-05-02T04:29:42.361Z,99.90
2023-05-02T04:32:10.136Z,99.90
2023-05-02T04:34:36.942Z,99.90
2023-05-02T04:37:03.700Z,99.90
2023-05-02T04:39:30.646Z,99.90
2023-05-02T04:41:57.428Z,99.90
2023-05-02T04:44:24.266Z,99.90
2023-05-02T04:46:51.194Z,99.90
2023-05-02T04:49:18.100Z,99.90
2023-05-02T04:51:44.999Z,99.90
2023-05-02T04:54:12.692Z,99.90
2023-05-02T04:56:40.349Z,99.90
2023-05-02T04:59:07.087Z,99.90
2023-05-02T05:01:33.893Z,99.90
2023-05-02T05:04:01.320Z,99.90
2023-05-02T05:06:28.362Z,99.90
2023-05-02T05:08:55.169Z,99.90
2023-05-02T05:11:24.158Z,99.90
2023-05-02T05:13:53.151Z,99.90
2023-05-02T05:16:20.017Z,99.90
2023-05-02T05:18:53.905Z,99.90
2023-05-02T05:21:20.894Z,99.90
2023-05-02T05:23:50.088Z,99.90
2023-05-02T05:26:16.951Z,99.90
2023-05-02T05:28:44.061Z,99.90
2023-05-02T05:31:16.820Z,99.90
2023-05-02T05:33:44.113Z,99.90
2023-05-02T05:36:12.702Z,99.90
2023-05-02T05:38:39.693Z,99.90
2023-05-02T05:41:07.885Z,99.90
2023-05-02T05:43:38.100Z,99.90
2023-05-02T05:46:05.252Z,99.90
2023-05-02T05:48:32.118Z,99.90
2023-05-02T05:50:58.914Z,99.90
2023-05-02T05:53:27.948Z,99.90
2023-05-02T05:55:54.711Z,99.90
2023-05-02T05:58:23.902Z,99.90
2023-05-02T06:00:53.449Z,99.90
2023-05-02T06:03:20.307Z,99.90
2023-05-02T06:05:47.223Z,99.90
2023-05-02T06:08:14.003Z,99.90
2023-05-02T06:10:43.017Z,99.90
2023-05-02T06:13:09.779Z,99.90
2023-05-02T06:15:39.352Z,99.90
2023-05-02T06:18:06.304Z,99.90
2023-05-02T06:20:33.187Z,99.90
2023-05-02T06:22:59.969Z,99.90
2023-05-02T06:25:26.853Z,99.90
2023-05-02T06:27:53.649Z,99.90
2023-05-02T06:30:20.896Z,99.90
2023-05-02T06:32:47.812Z,99.90
2023-05-02T06:35:14.574Z,99.90
2023-05-02T06:37:41.479Z,99.90
2023-05-02T06:40:09.324Z,99.90
2023-05-02T06:42:38.583Z,99.90
2023-05-02T06:45:05.852Z,99.90
2023-05-02T06:47:33.052Z,99.90
2023-05-02T06:50:00.151Z,99.90
2023-05-02T06:52:27.250Z,99.90
2023-05-02T06:54:54.000Z,99.90
2023-05-02T06:57:20.764Z,99.90
2023-05-02T06:59:47.536Z,99.90
2023-05-02T07:02:16.520Z,99.90
2023-05-02T07:04:46.067Z,99.90
2023-05-02T07:07:12.996Z,99.90
2023-05-02T07:09:39.764Z,99.90
2023-05-02T07:12:08.787Z,99.90
2023-05-02T07:14:35.517Z,99.90
2023-05-02T07:17:02.327Z,99.90
2023-05-02T07:19:29.171Z,99.90
2023-05-02T07:21:56.076Z,99.90
2023-05-02T07:24:27.538Z,99.90
2023-05-02T07:26:54.298Z,99.90
2023-05-02T07:29:23.209Z,99.90
2023-05-02T07:31:50.089Z,99.90
2023-05-02T07:34:19.074Z,99.90
2023-05-02T07:36:50.590Z,99.90
2023-05-02T07:39:19.859Z,99.90
2023-05-02T07:41:46.621Z,99.90
2023-05-02T07:44:13.390Z,99.90
2023-05-02T07:46:42.348Z,99.90
2023-05-02T07:49:09.152Z,99.90
2023-05-02T07:51:35.947Z,99.90
2023-05-02T07:54:02.746Z,99.90
2023-05-02T07:56:30.191Z,99.90
2023-05-02T07:58:57.147Z,99.90
2023-05-02T08:01:23.895Z,99.90
2023-05-02T08:03:53.132Z,99.90
2023-05-02T08:06:20.145Z,99.90
2023-05-02T08:08:46.952Z,99.90
2023-05-02T08:11:13.720Z,99.90
2023-05-02T08:13:40.486Z,99.90
2023-05-02T08:16:07.386Z,99.90
2023-05-02T08:18:34.342Z,99.90
2023-05-02T08:21:01.392Z,99.90
2023-05-02T08:23:28.228Z,99.90
2023-05-02T08:25:57.240Z,99.90
2023-05-02T08:28:24.010Z,99.90
2023-05-02T08:30:50.915Z,99.90
2023-05-02T08:33:17.758Z,99.90
2023-05-02T08:35:46.744Z,99.90
2023-05-02T08:38:13.571Z,99.90
2023-05-02T08:40:42.895Z,99.90
2023-05-02T08:43:11.764Z,99.90
2023-05-02T08:45:42.985Z,99.90
2023-05-02T08:48:11.778Z,99.90
2023-05-02T08:50:43.584Z,99.90
2023-05-02T08:53:11.356Z,99.90
2023-05-02T08:55:40.076Z,99.90
2023-05-02T08:58:07.677Z,99.90
2023-05-02T09:00:41.174Z,99.90
2023-05-02T09:03:23.745Z,99.90
2023-05-02T09:05:58.960Z,99.90
2023-05-02T09:08:25.800Z,99.90
2023-05-02T09:10:54.882Z,99.90
2023-05-02T09:13:31.473Z,99.90
2023-05-02T09:16:02.380Z,99.90
2023-05-02T09:18:33.547Z,99.90
2023-05-02T09:21:01.223Z,99.90
2023-05-02T09:23:36.812Z,99.90
2023-05-02T09:26:17.053Z,99.90
2023-05-02T09:28:54.167Z,99.90
2023-05-02T09:31:49.481Z,99.90
2023-05-02T09:34:21.921Z,99.90
2023-05-02T09:36:54.378Z,99.90
2023-05-02T09:39:26.472Z,99.90
2023-05-02T09:41:53.524Z,99.90
2023-05-02T09:44:21.786Z,99.90
2023-05-02T09:46:49.887Z,99.90
2023-05-02T09:49:25.922Z,99.90
2023-05-02T09:51:52.759Z,99.90
2023-05-02T09:54:40.396Z,99.90
2023-05-02T09:57:07.466Z,99.90
2023-05-02T09:59:34.462Z,99.90
2023-05-02T10:02:04.872Z,99.90
2023-05-02T10:04:32.530Z,99.90
2023-05-02T10:06:59.805Z,99.90
2023-05-02T10:09:27.859Z,99.90
2023-05-02T10:11:56.524Z,99.90
2023-05-02T10:14:27.029Z,99.90
2023-05-02T10:17:01.184Z,99.90
2023-05-02T10:19:30.961Z,99.90
2023-05-02T10:21:58.326Z,99.90
2023-05-02T10:24:27.207Z,99.90
2023-05-02T10:26:54.018Z,99.90
2023-05-02T10:29:20.893Z,99.90
2023-05-02T10:31:49.965Z,99.90
2023-05-02T10:34:17.047Z,99.90
2023-05-02T10:36:43.827Z,99.90
2023-05-02T10:39:10.664Z,99.90
2023-05-02T10:41:37.438Z,99.90
2023-05-02T10:44:07.910Z,99.90
2023-05-02T10:46:38.461Z,99.90
2023-05-02T10:49:11.901Z,99.90
2023-05-02T10:51:42.266Z,99.90
2023-05-02T10:54:18.116Z,99.90
2023-05-02T10:57:01.820Z,99.90
2023-05-02T10:59:39.139Z,99.90
2023-05-02T11:02:28.083Z,99.90
2023-05-02T11:05:03.091Z,99.90
2023-05-02T11:07:31.219Z,99.90
2023-05-02T11:10:20.425Z,99.90
2023-05-02T11:12:53.771Z,99.90
2023-05-02T11:15:29.399Z,99.90
2023-05-02T11:18:04.027Z,99.90
2023-05-02T11:20:31.930Z,99.90
2023-05-02T11:23:00.283Z,99.90
2023-05-02T11:25:30.911Z,99.90
2023-05-02T11:27:57.989Z,99.90
2023-05-02T11:30:37.400Z,99.90
2023-05-02T11:33:04.223Z,99.90
2023-05-02T11:35:34.590Z,99.90
2023-05-02T11:38:03.298Z,99.90
2023-05-02T11:40:30.409Z,99.90
2023-05-02T11:43:00.210Z,99.90
2023-05-02T11:45:36.450Z,99.90
2023-05-02T11:48:12.160Z,99.90
2023-05-02T11:50:58.320Z,99.90
2023-05-02T11:53:26.580Z,99.90
2023-05-02T11:56:03.550Z,99.90
2023-05-02T11:58:32.962Z,99.90
2023-05-02T12:01:11.920Z,99.90
2023-05-02T12:03:38.876Z,99.90
2023-05-02T12:06:20.061Z,99.90
2023-05-02T12:08:48.555Z,99.90
2023-05-02T12:11:16.545Z,99.90
2023-05-02T12:13:50.020Z,99.90
2023-05-02T12:16:17.702Z,99.90
2023-05-02T12:18:44.603Z,99.90
2023-05-02T12:21:11.410Z,99.90
2023-05-02T12:23:39.581Z,99.90
2023-05-02T12:26:25.673Z,99.90
2023-05-02T12:28:54.784Z,99.90
2023-05-02T12:31:22.045Z,99.90
2023-05-02T12:33:50.792Z,99.90
2023-05-02T12:36:20.910Z,99.90
2023-05-02T12:38:57.041Z,99.90
2023-05-02T12:41:38.056Z,99.90
2023-05-02T12:44:09.940Z,99.90
2023-05-02T12:46:39.191Z,99.90
2023-05-02T12:49:12.334Z,99.90
2023-05-02T12:51:39.925Z,99.90
2023-05-02T12:54:07.212Z,99.90
2023-05-02T12:56:44.150Z,99.90
2023-05-02T12:59:12.082Z,99.90
2023-05-02T13:01:41.467Z,99.90
2023-05-02T13:04:08.418Z,99.90
2023-05-02T13:06:37.976Z,99.90
2023-05-02T13:09:05.100Z,99.90
2023-05-02T13:11:32.495Z,99.90
2023-05-02T13:14:01.413Z,99.90
2023-05-02T13:16:30.422Z,99.90
2023-05-02T13:18:57.589Z,99.90
2023-05-02T13:21:24.438Z,99.90
2023-05-02T13:23:55.362Z,99.90
2023-05-02T13:26:22.153Z,99.90
2023-05-02T13:28:49.055Z,99.90
2023-05-02T13:31:15.889Z,99.90
2023-05-02T13:33:42.686Z,99.90
2023-05-02T13:36:11.843Z,99.90
2023-05-02T13:38:38.914Z,99.90
2023-05-02T13:41:05.687Z,99.90
2023-05-02T13:43:32.635Z,99.90
2023-05-02T13:45:59.580Z,99.90
2023-05-02T13:48:26.562Z,99.90
2023-05-02T13:50:57.863Z,99.90
2023-05-02T13:53:24.699Z,99.90
2023-05-02T13:55:53.800Z,99.90
2023-05-02T13:58:23.284Z,99.90
2023-05-02T14:00:52.283Z,99.90
2023-05-02T14:03:19.357Z,99.90
2023-05-02T14:05:46.188Z,99.90
2023-05-02T14:08:18.138Z,99.90
2023-05-02T14:10:45.202Z,99.90
2023-05-02T14:13:11.945Z,99.90
2023-05-02T14:15:38.845Z,99.90
2023-05-02T14:18:07.861Z,99.90
2023-05-02T14:20:34.638Z,99.90
2023-05-02T14:23:01.460Z,99.90
2023-05-02T14:25:28.276Z,99.90
2023-05-02T14:27:57.504Z,99.90
2023-05-02T14:30:24.247Z,99.90
2023-05-02T14:32:51.039Z,99.90
2023-05-02T14:35:17.953Z,99.90
2023-05-02T14:37:45.660Z,99.90
2023-05-02T14:40:17.197Z,99.90
2023-05-02T14:42:44.279Z,99.90
2023-05-02T14:45:13.361Z,99.90
2023-05-02T14:47:42.298Z,99.90
2023-05-02T14:50:09.534Z,99.90
2023-05-02T14:52:36.325Z,99.90
2023-05-02T14:55:06.866Z,99.90
2023-05-02T14:57:33.760Z,99.90
2023-05-02T15:00:01.033Z,99.90
2023-05-02T15:02:28.139Z,99.90
2023-05-02T15:04:54.995Z,99.90
2023-05-02T15:07:24.078Z,99.90
2023-05-02T15:09:50.942Z,99.90
2023-05-02T15:12:19.970Z,99.90
2023-05-02T15:14:46.712Z,99.90
2023-05-02T15:17:15.828Z,99.90
2023-05-02T15:19:45.275Z,99.90
2023-05-02T15:22:12.119Z,99.90
2023-05-02T15:24:39.105Z,99.90
2023-05-02T15:27:06.191Z,99.90
2023-05-02T15:29:33.133Z,99.90
2023-05-02T15:32:02.475Z,99.90
2023-05-02T15:34:29.287Z,99.90
2023-05-02T15:36:59.482Z,99.90
2023-05-02T15:39:27.976Z,99.90
2023-05-02T15:41:54.821Z,99.90
2023-05-02T15:44:21.728Z,99.90
2023-05-02T15:46:52.953Z,99.90
2023-05-02T15:49:19.767Z,99.90
2023-05-02T15:51:46.579Z,99.90
2023-05-02T15:54:13.314Z,99.90
2023-05-02T15:56:40.587Z,99.90
2023-05-02T15:59:09.876Z,99.90
2023-05-02T16:01:39.566Z,99.90
2023-05-02T16:04:07.146Z,99.90
2023-05-02T16:06:41.248Z,99.90
2023-05-02T16:09:08.108Z,99.90
2023-05-02T16:11:34.869Z,99.90
2023-05-02T16:14:01.600Z,99.90
2023-05-02T16:16:28.413Z,99.90
2023-05-02T16:18:57.432Z,99.90
2023-05-02T16:21:24.231Z,99.90
2023-05-02T16:23:53.274Z,99.90
2023-05-02T16:26:20.889Z,99.90
2023-05-02T16:28:47.665Z,99.90
2023-05-02T16:31:15.225Z,99.90
2023-05-02T16:33:42.978Z,99.90
2023-05-02T16:36:10.214Z,99.90
2023-05-02T16:38:39.465Z,99.90
2023-05-02T16:41:09.055Z,99.90
2023-05-02T16:43:36.189Z,99.90
2023-05-02T16:46:04.241Z,99.90
2023-05-02T16:48:31.197Z,99.90
2023-05-02T16:50:58.440Z,99.90
2023-05-02T16:53:27.559Z,99.90
2023-05-02T16:55:54.691Z,99.90
2023-05-02T16:58:21.680Z,99.90
2023-05-02T17:00:48.453Z,99.90
2023-05-02T17:03:17.400Z,99.90
2023-05-02T17:05:44.153Z,99.90
2023-05-02T17:08:11.117Z,99.90
2023-05-02T17:10:37.900Z,99.90
2023-05-02T17:13:07.724Z,99.90
2023-05-02T17:15:39.943Z,99.90
2023-05-02T17:18:09.087Z,99.90
2023-05-02T17:20:36.098Z,99.90
2023-05-02T17:23:02.982Z,99.90
2023-05-02T17:25:34.190Z,99.90
2023-05-02T17:28:05.696Z,99.90
2023-05-02T17:30:35.301Z,99.90
2023-05-02T17:33:04.748Z,99.90
2023-05-02T17:35:31.787Z,99.90
2023-05-02T17:37:58.681Z,99.90
2023-05-02T17:40:25.516Z,99.90
2023-05-02T17:42:58.815Z,99.90
2023-05-02T17:45:29.882Z,99.90
2023-05-02T17:47:56.888Z,99.90
2023-05-02T17:50:26.227Z,99.90
2023-05-02T17:52:53.188Z,99.90
2023-05-02T17:55:22.477Z,99.90
2023-05-02T17:57:51.615Z,99.90
2023-05-02T18:00:19.053Z,99.90
2023-05-02T18:02:45.938Z,99.90
2023-05-02T18:05:12.859Z,99.90
2023-05-02T18:07:41.817Z,99.90
2023-05-02T18:10:08.950Z,99.90
2023-05-02T18:12:36.061Z,99.90
2023-05-02T18:15:06.011Z,99.90
2023-05-02T18:17:33.128Z,99.90
2023-05-02T18:20:00.137Z,99.90
2023-05-02T18:22:29.414Z,99.90
2023-05-02T18:24:58.662Z,99.90
2023-05-02T18:27:25.802Z,99.90
2023-05-02T18:29:52.581Z,99.90
2023-05-02T18:32:19.344Z,99.90
2023-05-02T18:34:46.167Z,99.90
2023-05-02T18:37:15.599Z,99.90
2023-05-02T18:39:42.307Z,99.90
2023-05-02T18:42:10.491Z,99.90
2023-05-02T18:44:37.243Z,99.90
2023-05-02T18:47:04.000Z,99.90
2023-05-02T18:49:33.070Z,99.90
2023-05-02T18:52:00.054Z,99.90
2023-05-02T18:54:28.029Z,99.90
2023-05-02T18:56:54.826Z,99.90
2023-05-02T18:59:21.943Z,99.90
2023-05-02T19:01:53.817Z,99.90
2023-05-02T19:04:21.089Z,99.90
2023-05-02T19:06:48.014Z,99.90
2023-05-02T19:09:15.701Z,99.90
2023-05-02T19:11:44.948Z,99.90
2023-05-02T19:14:12.294Z,99.90
2023-05-02T19:16:41.607Z,99.90
2023-05-02T19:19:08.591Z,99.90
2023-05-02T19:21:35.452Z,99.90
2023-05-02T19:24:02.836Z,99.90
2023-05-02T19:26:29.664Z,99.90
2023-05-02T19:28:57.144Z,99.90
2023-05-02T19:31:23.978Z,99.90
2023-05-02T19:33:56.534Z,99.90
2023-05-02T19:36:23.764Z,99.90
2023-05-02T19:38:54.505Z,99.90
2023-05-02T19:43:49.019Z,99.90
2023-05-02T19:46:15.953Z,99.90
2023-05-02T19:48:42.931Z,99.90
2023-05-02T19:51:12.462Z,99.90
2023-05-02T19:53:40.345Z,99.90
2023-05-02T19:56:07.479Z,99.90
2023-05-02T19:58:34.397Z,99.90
2023-05-02T20:01:01.264Z,99.90
2023-05-02T20:03:28.327Z,99.90
2023-05-02T20:05:57.463Z,99.90
2023-05-02T20:08:27.934Z,99.90
2023-05-02T20:10:55.788Z,99.90
2023-05-02T20:13:22.619Z,99.90
2023-05-02T20:15:52.687Z,99.90
2023-05-02T20:18:19.609Z,99.90
2023-05-02T20:20:46.389Z,99.90
2023-05-02T20:23:16.120Z,99.90
2023-05-02T20:25:43.719Z,99.90
2023-05-02T20:28:13.511Z,99.90
2023-05-02T20:30:40.463Z,99.90
2023-05-02T20:33:15.407Z,99.90
2023-05-02T20:35:45.716Z,99.90
2023-05-02T20:38:12.596Z,99.90
2023-05-02T20:40:42.764Z,99.90
2023-05-02T20:43:12.567Z,99.90
2023-05-02T20:45:40.129Z,99.90
2023-05-02T20:48:07.057Z,99.90
2023-05-02T20:50:36.709Z,99.90
2023-05-02T20:53:04.543Z,99.90
2023-05-02T20:55:35.707Z,99.90
2023-05-02T20:58:05.051Z,99.90
2023-05-02T21:00:37.084Z,99.90
2023-05-02T21:03:03.960Z,99.90
2023-05-02T21:05:30.746Z,99.90
2023-05-02T21:08:02.276Z,99.90
2023-05-02T21:10:30.465Z,99.90
2023-05-02T21:12:57.225Z,99.90
2023-05-02T21:15:26.733Z,99.90
2023-05-02T21:18:06.017Z,99.90
2023-05-02T21:20:36.105Z,99.90
2023-05-02T21:23:03.015Z,99.90
2023-05-02T21:25:32.280Z,99.90
2023-05-02T21:28:01.121Z,99.90
2023-05-02T21:30:27.949Z,99.90
2023-05-02T21:32:57.106Z,99.90
2023-05-02T21:35:23.857Z,99.90
2023-05-02T21:37:53.018Z,99.90
2023-05-02T21:40:19.836Z,99.90
2023-05-02T21:42:46.592Z,99.90
2023-05-02T21:45:15.976Z,99.90
2023-05-02T21:47:45.515Z,99.90
2023-05-02T21:50:12.432Z,99.90
2023-05-02T21:52:41.374Z,99.90
2023-05-02T21:55:08.556Z,99.90
2023-05-02T21:57:35.336Z,99.90
2023-05-02T22:00:04.888Z,99.90
2023-05-02T22:02:34.646Z,99.90
2023-05-02T22:05:01.451Z,99.90
2023-05-02T22:07:28.301Z,99.90
2023-05-02T22:09:57.245Z,99.90
2023-05-02T22:12:26.829Z,99.90
2023-05-02T22:14:53.577Z,99.90
2023-05-02T22:17:22.840Z,99.90
2023-05-02T22:19:50.425Z,99.90
2023-05-02T22:22:20.277Z,99.90
2023-05-02T22:24:49.316Z,99.90
2023-05-02T22:27:18.618Z,99.90
2023-05-02T22:29:45.424Z,99.90
2023-05-02T22:32:12.242Z,99.90
2023-05-02T22:34:41.643Z,99.90
2023-05-02T22:37:08.596Z,99.90
2023-05-02T22:39:35.693Z,99.90
2023-05-02T22:42:03.173Z,99.90
2023-05-02T22:44:43.322Z,99.90
2023-05-02T22:47:17.598Z,99.90
2023-05-02T22:49:44.786Z,99.90
2023-05-02T22:52:18.290Z,99.90
2023-05-02T22:54:49.786Z,99.90
2023-05-02T22:57:16.534Z,99.90
2023-05-02T22:59:43.398Z,99.90
2023-05-02T23:02:11.733Z,99.90
2023-05-02T23:04:38.471Z,99.90
2023-05-02T23:07:07.677Z,99.90
2023-05-02T23:09:36.547Z,99.90
2023-05-02T23:12:05.980Z,99.90
2023-05-02T23:14:32.865Z,99.90
2023-05-02T23:17:02.240Z,99.90
2023-05-02T23:19:29.283Z,99.90
2023-05-02T23:21:58.322Z,99.90
2023-05-02T23:24:27.666Z,99.90
2023-05-02T23:26:57.124Z,99.90
2023-05-02T23:29:26.124Z,99.90
2023-05-02T23:31:54.492Z,99.90
2023-05-02T23:34:21.423Z,99.90
2023-05-02T23:36:48.194Z,99.90
2023-05-02T23:39:17.337Z,99.90
2023-05-02T23:41:44.060Z,99.90
2023-05-02T23:44:10.897Z,99.90
2023-05-02T23:46:37.800Z,99.90
2023-05-02T23:49:04.656Z,99.90
2023-05-02T23:51:32.170Z,99.90
2023-05-02T23:54:01.523Z,99.90
2023-05-02T23:56:28.362Z,99.90
2023-05-02T23:58:55.616Z,99.90
